createdAt,value
2022-08-31T00:02:16.897Z,100.00
2022-08-31T00:04:50.188Z,100.00
2022-08-31T00:07:38.023Z,100.00
2022-08-31T00:10:32.304Z,100.00
2022-08-31T00:13:22.881Z,100.00
2022-08-31T00:15:57.960Z,100.00
2022-08-31T00:18:45.892Z,100.00
2022-08-31T00:21:25.864Z,100.00
2022-08-31T00:24:20.899Z,100.00
2022-08-31T00:27:07.890Z,100.00
2022-08-31T00:29:41.121Z,100.00
2022-08-31T00:32:28.911Z,100.00
2022-08-31T00:35:01.963Z,100.00
2022-08-31T00:37:48.899Z,100.00
2022-08-31T00:40:22.021Z,100.00
2022-08-31T00:43:27.865Z,100.00
2022-08-31T00:46:01.078Z,100.00
2022-08-31T00:48:52.877Z,100.00
2022-08-31T00:51:25.965Z,100.00
2022-08-31T00:54:14.900Z,100.00
2022-08-31T00:56:55.925Z,100.00
2022-08-31T00:59:51.899Z,100.00
2022-08-31T01:02:39.072Z,100.00
2022-08-31T01:05:13.991Z,100.00
2022-08-31T01:08:01.875Z,100.00
2022-08-31T01:10:46.914Z,100.00
2022-08-31T01:13:43.899Z,100.00
2022-08-31T01:16:43.937Z,100.00
2022-08-31T01:19:41.965Z,100.00
2022-08-31T01:22:28.920Z,100.00
2022-08-31T01:25:02.985Z,100.00
2022-08-31T01:27:49.895Z,100.00
2022-08-31T01:30:31.987Z,100.00
2022-08-31T01:33:20.032Z,100.00
2022-08-31T01:35:53.017Z,100.00
2022-08-31T01:38:40.909Z,100.00
2022-08-31T01:41:21.922Z,100.00
2022-08-31T01:44:08.977Z,100.00
2022-08-31T01:46:42.069Z,100.00
2022-08-31T01:49:30.923Z,100.00
2022-08-31T01:52:10.925Z,100.00
2022-08-31T01:55:04.925Z,100.00
2022-08-31T01:57:51.921Z,100.00
2022-08-31T02:00:24.992Z,100.00
2022-08-31T02:03:14.937Z,100.00
2022-08-31T02:05:48.028Z,100.00
2022-08-31T02:08:34.934Z,100.00
2022-08-31T02:11:08.009Z,100.00
2022-08-31T02:13:54.921Z,100.00
2022-08-31T02:16:34.953Z,100.00
2022-08-31T02:19:22.928Z,100.00
2022-08-31T02:22:02.963Z,100.00
2022-08-31T02:24:56.930Z,100.00
2022-08-31T02:27:51.935Z,100.00
2022-08-31T02:30:45.928Z,100.00
2022-08-31T02:33:32.927Z,100.00
2022-08-31T02:36:07.015Z,100.00
2022-08-31T02:38:54.942Z,100.00
2022-08-31T02:41:35.947Z,100.00
2022-08-31T02:44:22.953Z,100.00
2022-08-31T02:46:56.177Z,100.00
2022-08-31T02:49:42.953Z,100.00
2022-08-31T02:52:22.950Z,100.00
2022-08-31T02:55:17.964Z,100.00
2022-08-31T02:58:04.952Z,100.00
2022-08-31T03:00:39.036Z,100.00
2022-08-31T03:03:26.968Z,100.00
2022-08-31T03:06:00.028Z,100.00
2022-08-31T03:08:48.951Z,100.00
2022-08-31T03:11:24.024Z,100.00
2022-08-31T03:14:11.001Z,100.00
2022-08-31T03:16:46.101Z,100.00
2022-08-31T03:19:36.970Z,100.00
2022-08-31T03:22:10.745Z,100.00
2022-08-31T03:25:00.150Z,100.00
2022-08-31T03:27:36.219Z,100.00
2022-08-31T03:30:29.269Z,100.00
2022-08-31T03:33:10.023Z,100.00
2022-08-31T03:36:00.286Z,100.00
2022-08-31T03:38:42.069Z,100.00
2022-08-31T03:41:38.990Z,100.00
2022-08-31T03:44:32.129Z,100.00
2022-08-31T03:47:05.067Z,100.00
2022-08-31T03:49:54.034Z,100.00
2022-08-31T03:52:27.328Z,100.00
2022-08-31T03:55:18.059Z,100.00
2022-08-31T03:57:51.395Z,100.00
2022-08-31T04:00:38.992Z,100.00
2022-08-31T04:03:14.187Z,100.00
2022-08-31T04:06:00.997Z,100.00
2022-08-31T04:08:41.007Z,100.00
2022-08-31T04:11:45.608Z,100.00
2022-08-31T04:14:33.007Z,100.00
2022-08-31T04:17:06.062Z,100.00
2022-08-31T04:19:53.001Z,100.00
2022-08-31T04:22:26.066Z,100.00
2022-08-31T04:25:13.004Z,100.00
2022-08-31T04:27:54.295Z,100.00
2022-08-31T04:30:46.296Z,100.00
2022-08-31T04:33:26.029Z,100.00
2022-08-31T04:36:24.997Z,100.00
2022-08-31T04:39:07.030Z,100.00
2022-08-31T04:42:01.011Z,100.00
2022-08-31T04:44:48.023Z,100.00
2022-08-31T04:47:21.082Z,100.00
2022-08-31T04:50:08.014Z,100.00
2022-08-31T04:52:42.233Z,100.00
2022-08-31T04:55:30.025Z,100.00
2022-08-31T04:58:11.016Z,100.00
2022-08-31T05:00:59.051Z,100.00
2022-08-31T05:03:32.218Z,100.00
2022-08-31T05:06:22.035Z,100.00
2022-08-31T05:08:59.107Z,100.00
2022-08-31T05:11:47.052Z,100.00
2022-08-31T05:14:24.325Z,100.00
2022-08-31T05:17:14.951Z,100.00
2022-08-31T05:19:49.116Z,100.00
2022-08-31T05:22:37.031Z,100.00
2022-08-31T05:25:17.028Z,100.00
2022-08-31T05:28:04.021Z,100.00
2022-08-31T05:30:37.177Z,100.00
2022-08-31T05:33:24.072Z,100.00
2022-08-31T05:35:57.117Z,100.00
2022-08-31T05:38:45.038Z,100.00
2022-08-31T05:41:18.108Z,100.00
2022-08-31T05:44:05.051Z,100.00
2022-08-31T05:46:45.089Z,100.00
2022-08-31T05:49:48.062Z,100.00
2022-08-31T05:52:42.055Z,100.00
2022-08-31T05:55:29.030Z,100.00
2022-08-31T05:58:09.054Z,100.00
2022-08-31T06:00:56.043Z,100.00
2022-08-31T06:03:29.355Z,100.00
2022-08-31T06:06:16.054Z,100.00
2022-08-31T06:08:52.967Z,100.00
2022-08-31T06:11:41.058Z,100.00
2022-08-31T06:14:16.122Z,100.00
2022-08-31T06:17:03.069Z,100.00
2022-08-31T06:19:44.052Z,100.00
2022-08-31T06:22:32.077Z,100.00
2022-08-31T06:25:07.065Z,100.00
2022-08-31T06:27:57.046Z,100.00
2022-08-31T06:30:47.753Z,100.00
2022-08-31T06:33:48.052Z,100.00
2022-08-31T06:36:37.073Z,100.00
2022-08-31T06:39:12.520Z,100.00
2022-08-31T06:42:02.091Z,100.00
2022-08-31T06:44:43.065Z,100.00
2022-08-31T06:47:30.067Z,100.00
2022-08-31T06:50:03.165Z,100.00
2022-08-31T06:52:50.134Z,100.00
2022-08-31T06:55:30.096Z,100.00
2022-08-31T06:58:24.086Z,100.00
2022-08-31T07:01:26.344Z,100.00
2022-08-31T07:04:22.094Z,100.00
2022-08-31T07:06:55.253Z,100.00
2022-08-31T07:09:42.129Z,100.00
2022-08-31T07:12:15.248Z,99.70
2022-08-31T07:15:02.140Z,99.96
2022-08-31T07:17:42.123Z,99.85
2022-08-31T07:20:29.130Z,99.64
2022-08-31T07:23:02.193Z,99.58
2022-08-31T07:25:49.106Z,99.36
2022-08-31T07:28:22.203Z,99.18
2022-08-31T07:31:10.183Z,98.71
2022-08-31T07:33:43.555Z,98.59
2022-08-31T07:36:32.149Z,99.10
2022-08-31T07:39:30.136Z,98.48
2022-08-31T07:42:25.160Z,98.53
2022-08-31T07:45:21.128Z,97.64
2022-08-31T07:48:10.149Z,98.20
2022-08-31T07:50:45.912Z,98.16
2022-08-31T07:53:33.145Z,97.85
2022-08-31T07:56:06.952Z,97.32
2022-08-31T07:58:57.149Z,96.90
2022-08-31T08:01:32.253Z,97.65
2022-08-31T08:04:32.134Z,96.41
2022-08-31T08:07:07.310Z,96.95
2022-08-31T08:09:55.159Z,95.95
2022-08-31T08:12:28.622Z,95.90
2022-08-31T08:15:15.161Z,95.56
2022-08-31T08:17:48.227Z,95.78
2022-08-31T08:20:37.727Z,94.75
2022-08-31T08:23:29.225Z,94.29
2022-08-31T08:26:21.873Z,94.22
2022-08-31T08:29:02.158Z,93.92
2022-08-31T08:31:59.196Z,93.28
2022-08-31T08:34:50.177Z,93.42
2022-08-31T08:37:41.008Z,94.33
2022-08-31T08:40:57.172Z,93.65
2022-08-31T08:43:52.390Z,93.50
2022-08-31T08:46:47.237Z,93.20
2022-08-31T08:49:58.127Z,92.56
2022-08-31T08:52:49.144Z,92.15
2022-08-31T08:55:27.214Z,91.66
2022-08-31T08:58:17.127Z,91.44
2022-08-31T09:00:50.219Z,90.90
2022-08-31T09:03:53.135Z,90.45
2022-08-31T09:07:06.168Z,90.52
2022-08-31T09:10:18.177Z,90.89
2022-08-31T09:13:21.262Z,90.36
2022-08-31T09:16:28.181Z,90.45
2022-08-31T09:19:23.157Z,89.62
2022-08-31T09:22:04.230Z,89.11
2022-08-31T09:24:52.233Z,89.51
2022-08-31T09:27:55.188Z,89.23
2022-08-31T09:31:00.191Z,89.18
2022-08-31T09:33:55.163Z,89.26
2022-08-31T09:36:29.260Z,89.29
2022-08-31T09:39:25.165Z,88.63
2022-08-31T09:42:18.333Z,87.68
2022-08-31T09:45:16.189Z,87.43
2022-08-31T09:48:08.169Z,88.65
2022-08-31T09:50:46.310Z,88.71
2022-08-31T09:53:52.196Z,88.10
2022-08-31T09:56:35.177Z,86.61
2022-08-31T09:59:54.170Z,87.28
2022-08-31T10:02:44.160Z,88.47
2022-08-31T10:05:41.812Z,88.31
2022-08-31T10:09:03.173Z,88.61
2022-08-31T10:11:39.433Z,89.21
2022-08-31T10:14:30.182Z,88.36
2022-08-31T10:17:38.269Z,88.07
2022-08-31T10:20:30.574Z,88.08
2022-08-31T10:23:27.199Z,88.81
2022-08-31T10:26:38.187Z,88.76
2022-08-31T10:29:39.184Z,88.55
2022-08-31T10:32:36.202Z,87.98
2022-08-31T10:35:39.190Z,89.68
2022-08-31T10:38:45.207Z,89.98
2022-08-31T10:41:57.190Z,89.70
2022-08-31T10:45:03.200Z,90.04
2022-08-31T10:47:48.190Z,90.29
2022-08-31T10:50:38.208Z,91.24
2022-08-31T10:53:35.989Z,91.97
2022-08-31T10:56:42.223Z,92.33
2022-08-31T11:00:03.221Z,92.21
2022-08-31T11:03:20.360Z,92.55
2022-08-31T11:06:25.207Z,92.85
2022-08-31T11:09:14.807Z,93.01
2022-08-31T11:12:11.205Z,92.69
2022-08-31T11:15:29.274Z,93.56
2022-08-31T11:18:42.265Z,93.12
2022-08-31T11:22:12.245Z,93.02
2022-08-31T11:25:27.221Z,93.69
2022-08-31T11:28:29.241Z,93.52
2022-08-31T11:31:30.266Z,93.56
2022-08-31T11:34:49.247Z,93.68
2022-08-31T11:38:02.242Z,93.28
2022-08-31T11:41:14.220Z,92.66
2022-08-31T11:44:01.244Z,92.55
2022-08-31T11:46:41.280Z,92.68
2022-08-31T11:49:52.242Z,90.44
2022-08-31T11:52:29.743Z,91.80
2022-08-31T11:55:53.275Z,91.63
2022-08-31T11:58:39.555Z,91.28
2022-08-31T12:01:27.254Z,91.86
2022-08-31T12:04:12.249Z,91.49
2022-08-31T12:07:18.251Z,90.92
2022-08-31T12:10:37.258Z,90.63
2022-08-31T12:13:37.243Z,89.04
2022-08-31T12:16:22.352Z,87.99
2022-08-31T12:20:00.952Z,86.23
2022-08-31T12:23:31.566Z,85.13
2022-08-31T12:26:44.877Z,85.14
2022-08-31T12:29:25.249Z,84.02
2022-08-31T12:32:37.249Z,82.21
2022-08-31T12:35:38.279Z,80.16
2022-08-31T12:38:34.272Z,80.94
2022-08-31T12:41:28.274Z,81.35
2022-08-31T12:44:22.261Z,81.88
2022-08-31T12:47:27.275Z,81.40
2022-08-31T12:50:41.248Z,78.46
2022-08-31T12:54:02.286Z,79.40
2022-08-31T12:57:18.289Z,79.82
2022-08-31T13:00:24.299Z,79.46
2022-08-31T13:03:40.276Z,79.74
2022-08-31T13:06:45.299Z,77.91
2022-08-31T13:09:34.281Z,77.72
2022-08-31T13:12:08.378Z,78.90
2022-08-31T13:14:55.303Z,79.02
2022-08-31T13:17:28.362Z,76.90
2022-08-31T13:20:15.312Z,77.34
2022-08-31T13:22:49.000Z,77.49
2022-08-31T13:25:43.307Z,75.40
2022-08-31T13:28:17.705Z,74.71
2022-08-31T13:31:15.354Z,74.17
2022-08-31T13:33:55.313Z,74.45
2022-08-31T13:36:44.300Z,73.37
2022-08-31T13:39:35.407Z,72.24
2022-08-31T13:42:50.811Z,73.19
2022-08-31T13:46:04.345Z,73.48
2022-08-31T13:48:43.381Z,72.88
2022-08-31T13:51:31.321Z,73.80
2022-08-31T13:54:11.483Z,74.38
2022-08-31T13:57:01.317Z,73.84
2022-08-31T13:59:36.464Z,75.22
2022-08-31T14:02:25.341Z,75.09
2022-08-31T14:05:05.050Z,75.88
2022-08-31T14:07:53.315Z,74.77
2022-08-31T14:10:30.620Z,75.12
2022-08-31T14:13:28.328Z,74.64
2022-08-31T14:16:13.365Z,76.12
2022-08-31T14:19:02.335Z,76.46
2022-08-31T14:21:50.330Z,76.07
2022-08-31T14:24:44.343Z,76.38
2022-08-31T14:27:31.336Z,76.89
2022-08-31T14:30:06.482Z,76.65
2022-08-31T14:32:53.345Z,76.91
2022-08-31T14:35:27.138Z,77.49
2022-08-31T14:38:14.357Z,77.79
2022-08-31T14:40:50.073Z,77.63
2022-08-31T14:43:38.365Z,77.73
2022-08-31T14:46:12.484Z,77.85
2022-08-31T14:48:59.343Z,78.03
2022-08-31T14:51:34.197Z,78.66
2022-08-31T14:54:23.339Z,78.14
2022-08-31T14:57:05.380Z,77.65
2022-08-31T15:00:03.393Z,78.62
2022-08-31T15:02:50.460Z,79.00
2022-08-31T15:05:33.358Z,79.08
2022-08-31T15:08:38.457Z,79.52
2022-08-31T15:11:25.404Z,79.22
2022-08-31T15:14:05.356Z,79.31
2022-08-31T15:16:54.416Z,79.85
2022-08-31T15:19:37.447Z,80.56
2022-08-31T15:22:32.391Z,79.54
2022-08-31T15:25:19.432Z,80.01
2022-08-31T15:27:59.353Z,79.42
2022-08-31T15:30:59.386Z,80.08
2022-08-31T15:33:50.361Z,80.22
2022-08-31T15:36:24.906Z,79.95
2022-08-31T15:39:11.383Z,79.99
2022-08-31T15:41:44.608Z,80.64
2022-08-31T15:44:31.373Z,80.21
2022-08-31T15:47:30.527Z,80.22
2022-08-31T15:50:17.390Z,80.81
2022-08-31T15:52:57.361Z,81.08
2022-08-31T15:55:46.377Z,81.04
2022-08-31T15:58:26.504Z,81.28
2022-08-31T16:01:22.435Z,81.16
2022-08-31T16:04:04.764Z,82.69
2022-08-31T16:06:52.405Z,82.79
2022-08-31T16:09:26.541Z,83.36
2022-08-31T16:12:19.388Z,84.28
2022-08-31T16:14:52.483Z,84.80
2022-08-31T16:17:39.391Z,84.11
2022-08-31T16:20:20.471Z,84.58
2022-08-31T16:23:07.399Z,85.21
2022-08-31T16:25:47.676Z,85.09
2022-08-31T16:28:35.398Z,85.15
2022-08-31T16:31:12.507Z,85.38
2022-08-31T16:34:02.405Z,85.62
2022-08-31T16:36:42.399Z,85.68
2022-08-31T16:39:36.390Z,85.97
2022-08-31T16:42:30.416Z,86.41
2022-08-31T16:45:25.453Z,86.50
2022-08-31T16:48:31.436Z,87.21
2022-08-31T16:51:12.408Z,86.71
2022-08-31T16:54:08.432Z,86.99
2022-08-31T16:56:55.421Z,86.78
2022-08-31T16:59:28.572Z,87.22
2022-08-31T17:02:18.490Z,87.66
2022-08-31T17:04:54.062Z,88.21
2022-08-31T17:07:41.428Z,87.62
2022-08-31T17:10:15.591Z,87.72
2022-08-31T17:13:02.426Z,87.86
2022-08-31T17:15:35.497Z,88.33
2022-08-31T17:18:22.423Z,88.66
2022-08-31T17:21:04.454Z,88.78
2022-08-31T17:24:01.420Z,89.21
2022-08-31T17:26:49.444Z,89.80
2022-08-31T17:29:30.430Z,89.78
2022-08-31T17:32:20.418Z,89.72
2022-08-31T17:34:54.717Z,90.08
2022-08-31T17:37:43.431Z,90.24
2022-08-31T17:40:24.492Z,90.73
2022-08-31T17:43:21.425Z,90.98
2022-08-31T17:46:18.513Z,90.43
2022-08-31T17:48:55.869Z,91.18
2022-08-31T17:51:42.467Z,90.79
2022-08-31T17:54:19.655Z,91.65
2022-08-31T17:57:08.456Z,91.32
2022-08-31T18:00:01.473Z,91.91
2022-08-31T18:02:48.440Z,91.83
2022-08-31T18:05:22.881Z,91.96
2022-08-31T18:08:09.442Z,91.92
2022-08-31T18:10:49.495Z,92.41
2022-08-31T18:13:43.501Z,92.46
2022-08-31T18:16:37.560Z,92.39
2022-08-31T18:19:25.515Z,92.62
2022-08-31T18:22:02.603Z,93.32
2022-08-31T18:24:50.435Z,93.43
2022-08-31T18:27:30.510Z,93.07
2022-08-31T18:30:20.538Z,93.34
2022-08-31T18:33:00.470Z,93.73
2022-08-31T18:35:59.465Z,93.49
2022-08-31T18:38:46.492Z,94.00
2022-08-31T18:41:38.596Z,93.33
2022-08-31T18:44:45.507Z,93.76
2022-08-31T18:47:27.476Z,93.95
2022-08-31T18:50:21.469Z,94.33
2022-08-31T18:53:28.789Z,94.10
2022-08-31T18:56:17.475Z,94.88
2022-08-31T18:58:50.569Z,94.50
2022-08-31T19:01:37.586Z,95.11
2022-08-31T19:04:12.609Z,95.05
2022-08-31T19:06:59.489Z,94.88
2022-08-31T19:09:32.574Z,95.30
2022-08-31T19:12:25.498Z,95.51
2022-08-31T19:15:02.079Z,94.96
2022-08-31T19:17:52.502Z,94.36
2022-08-31T19:20:28.911Z,94.67
2022-08-31T19:23:19.831Z,94.36
2022-08-31T19:26:00.528Z,94.68
2022-08-31T19:28:55.501Z,94.29
2022-08-31T19:31:44.535Z,94.40
2022-08-31T19:34:30.499Z,94.61
2022-08-31T19:37:19.524Z,94.21
2022-08-31T19:39:52.667Z,93.55
2022-08-31T19:43:53.354Z,93.45
2022-08-31T19:46:15.945Z,93.90
2022-08-31T19:49:06.495Z,93.26
2022-08-31T19:51:46.719Z,93.50
2022-08-31T19:54:46.501Z,93.29
2022-08-31T19:57:40.509Z,92.85
2022-08-31T20:00:36.512Z,93.21
2022-08-31T20:03:30.517Z,93.69
2022-08-31T20:06:20.512Z,92.69
2022-08-31T20:08:56.682Z,92.84
2022-08-31T20:11:44.525Z,92.71
2022-08-31T20:14:17.662Z,92.90
2022-08-31T20:17:05.532Z,92.52
2022-08-31T20:19:39.528Z,92.63
2022-08-31T20:22:30.534Z,92.52
2022-08-31T20:25:03.973Z,92.78
2022-08-31T20:27:50.773Z,92.89
2022-08-31T20:30:23.647Z,92.86
2022-08-31T20:33:11.600Z,93.18
2022-08-31T20:35:47.928Z,93.24
2022-08-31T20:38:36.519Z,93.22
2022-08-31T20:41:17.523Z,93.54
2022-08-31T20:44:17.546Z,94.01
2022-08-31T20:47:26.592Z,94.18
2022-08-31T20:50:13.530Z,94.28
2022-08-31T20:53:07.536Z,94.10
2022-08-31T20:55:54.562Z,94.39
2022-08-31T20:58:35.983Z,94.63
2022-08-31T21:01:22.610Z,94.95
2022-08-31T21:03:55.628Z,94.74
2022-08-31T21:06:45.536Z,95.26
2022-08-31T21:09:20.074Z,95.53
2022-08-31T21:12:06.529Z,95.43
2022-08-31T21:14:43.583Z,95.55
2022-08-31T21:17:31.561Z,95.57
2022-08-31T21:20:04.732Z,95.92
2022-08-31T21:22:51.561Z,95.64
2022-08-31T21:25:32.559Z,95.45
2022-08-31T21:28:22.576Z,95.61
2022-08-31T21:30:55.690Z,95.65
2022-08-31T21:33:42.550Z,96.38
2022-08-31T21:36:18.724Z,96.34
2022-08-31T21:39:05.547Z,96.04
2022-08-31T21:41:46.581Z,95.98
2022-08-31T21:44:40.555Z,96.15
2022-08-31T21:47:27.594Z,95.99
2022-08-31T21:50:00.648Z,96.06
2022-08-31T21:52:47.557Z,95.51
2022-08-31T21:55:20.660Z,95.89
2022-08-31T21:58:07.582Z,95.73
2022-08-31T22:00:42.227Z,95.31
2022-08-31T22:03:29.587Z,95.24
2022-08-31T22:06:04.368Z,95.20
2022-08-31T22:08:51.574Z,94.96
2022-08-31T22:11:27.670Z,95.20
2022-08-31T22:14:16.601Z,95.32
2022-08-31T22:16:51.985Z,95.48
2022-08-31T22:19:42.581Z,94.92
2022-08-31T22:22:21.202Z,95.26
2022-08-31T22:25:09.589Z,95.48
2022-08-31T22:27:49.588Z,94.96
2022-08-31T22:30:43.668Z,94.90
2022-08-31T22:33:31.600Z,94.91
2022-08-31T22:36:04.779Z,95.07
2022-08-31T22:38:52.608Z,95.23
2022-08-31T22:41:25.714Z,95.00
2022-08-31T22:44:23.581Z,95.26
2022-08-31T22:47:17.609Z,95.61
2022-08-31T22:50:11.596Z,95.12
2022-08-31T22:52:58.665Z,95.46
2022-08-31T22:55:31.667Z,95.20
2022-08-31T22:58:19.689Z,94.99
2022-08-31T23:00:52.696Z,95.54
2022-08-31T23:03:39.587Z,95.24
2022-08-31T23:06:13.743Z,95.44
2022-08-31T23:09:02.605Z,95.48
2022-08-31T23:11:42.625Z,95.59
2022-08-31T23:14:29.615Z,95.62
2022-08-31T23:17:09.139Z,95.44
2022-08-31T23:19:58.686Z,95.73
2022-08-31T23:22:39.598Z,95.52
2022-08-31T23:25:38.628Z,95.49
2022-08-31T23:28:25.616Z,95.29
2022-08-31T23:31:05.642Z,95.22
2022-08-31T23:33:59.614Z,95.54
2022-08-31T23:36:48.614Z,95.45
2022-08-31T23:39:34.622Z,95.59
2022-08-31T23:42:29.623Z,95.54
2022-08-31T23:45:17.651Z,95.66
2022-08-31T23:47:51.478Z,95.58
2022-08-31T23:50:38.641Z,95.87
2022-08-31T23:53:14.706Z,95.87
2022-08-31T23:56:01.619Z,95.73
2022-08-31T23:58:34.793Z,95.21
